Kassel, Tyskland

04:27 PM CET on Oktober 31, 2014 (GMT +0100)
Kassel Bettenhausen | Change Station
CLOSE
Current Station
Personal Weather Stations
Location: Kassel, HESSEN
Elevation: 466 ft
Nearby Weather Stations

Elev 466 ft 51.31 °N, 9.53 °E | Updated 8 seconds ago

Clear
Klart
59.3 °F
Feels Like 59.3 °F
N
0.4
Vind Växlande Vind from Sydlig
Gusts 0.4 miles/tim

Idag
High -- | Low -- °F
--% Chance of Precip.
Yesterday
High -- | Low -- °F
Precip. -- tum
7:13 AM 4:57 PM
Första kvarteret, 56% visible
Lufttryck 30.24 tum
Sikt -9999.0 miles
Molnigt
Daggpunkt 55 °F
Luftfuktighet 85%
Rainfall 0.00 tum
Snow Depth Not available.
UV Not available.
Pollen Not available.
Air Quality Not available.
Flu Activity Not available.
METAR EDVK 311520Z 19008KT CAVOK 14/12 Q1024 RMK ATIS V

More Conditions Fewer Conditions

Lufttryck 30.24 tum
Sikt -9999.0 miles
Molnigt
Daggpunkt 55 °F
Luftfuktighet 85%
Rainfall 0.00 tum
Snow Depth Not available.
UV Not available.
Pollen Not available.
Air Quality Not available.
Flu Activity Not available.
METAR EDVK 311520Z 19008KT CAVOK 14/12 Q1024 RMK ATIS V

More Conditions Fewer Conditions

10-Day Weather Forecast

Almanac

Astronomi

Oct. 31, 2014 Rise Set
Actual Time
Civil Twilight
Nautical Twilight
Astronomical Twilight
Månen
Length Of Visible Light
Dagens längd
Tomorrow will be .
, % of the Moon is Illuminated

Today's Extremes

Country Highs Country Lows

Community

WunderPhotos

Upload Photos

1,766,637 photos uploaded!

WunderBlogs® & News

Nearby

Air Quality

  Air Quality AQ Index Pollutant
Not available.

Snödjup

Station Depth Elevation

Earthquake Activity

Stad Distance Mag. Time & Date
Minimum magnitude displayed is 2.5.

Coastal Water Temperatures

Plats Temperatur

Nearby Weather Stations